« 第二次グアム合宿3日目 | トップページ | 常夏の翌日は雪・・・・・ »

2010年2月 1日 (月)

第二次グアム合宿4日目

02月01日(日)【4日目最終日】
PGUM 312254Z 07014KT 10SM FEW023 OVC060 27/21 A2999
PGUM 010154Z 09011G19KT 10SM SCT023 29/22 A2995
PGUM 010354Z 07013G22KT 10SM FEW029 SCT060 30/21 A2989
PGUM 010454Z 07014G21KT 10SM FEW027 29/21 A2988
RJAA 010900Z 03014KT 4500 RA BR FEW008 BKN012 BKN030 04/02 Q1008 TEMPO 04016G27KT
RJAA 011000Z 03012KT 350V060 8000 -RA FEW008 BKN012 BKN030 04/02 Q1006 TEMPO 04016G27KT BKN004 BKN010 BECMG 4000 RA BR
RJAA 011243Z 36019KT 2400 R34L/0450VP1800D R34R/P1800N SNRA BR FEW002 BKN007 BKN025 01/00 Q1004 RMK 1ST002 6ST007 7SC025 A2967
RJAA 011430Z 35014KT 0700 R34L/1000V1600D R34R/1200N +SN FEW001 BKN003 BKN015 00/M00 Q1006 TEMPO 36016G27KT RMK 1ST001 5ST003 7SC015 A2971

今日は今回の合宿、最大の目的であるTSAの指紋取りです。
個人で取りに行くのは怖い(笑)のでTVAにサポートをお願いした。サポート料
は25USDだった。8時45分にTVAで待ち合わせて、青木美和教官と一緒に空港警察
に行く。途中、DHLに寄って採取した指紋をTSA本部に送付する送料支払い済みの
封筒を購入して行く。結構、手続きが面倒でサポートをお願いしてよかった!
空港警察の到着したが、担当官が行方不明で焦る。ちゃんと予約したのに・・・・(泣)
暫くするとやる気の無い担当官がやってきたて金を払って来いと言われ、窓口で
45USDを払って戻ってくると、担当官のオヤジが「機械がどこかに行ってしまった」
とか言ってる!青木教官が「うそでしょう~!」と力なく呟いた!
ガーン・・・なんてこった!

暫くして担当官のオヤジがバツが悪そうにやってきた・・・
指紋をとるから、申請者だけ来いと言われ独りで別の部屋に行く・・・
指紋を取る機械って・・・機械って言うぐらいだからどんなに凄いんだぁ~と
思ったら、CCDカメラでもなんでも無く、手に黒インクをローラーで塗って
紙に手を当てるだけのシロモノです。

5分で終わりましたよ!

まったくもぉ~!!!!!

5分で終わる作業に2時間以上も掛かってしまいました(笑)

青木教官のお陰で無事に指紋を取り終わりTVAに戻ります。

TVAに戻ると、スダチさん、つのやんが待ちくたびれていました(謝)
TVAに別れを告げてお昼はマイクロネシアモールのフードコートで済ませ、レンタ
カーを返します。帰りの便はJO942便で定刻どおりグアムを離陸しましたが、成田
に着陸する頃は3000ftまでは大雪で地上は大雨でした。つのやんはバスで、スダチ
さんは京成で羽田空港近くのホテルでもう1泊、私はJRで帰宅しましたが、自宅付近
はすでに雪で真っ白でした


おわり


Dscn2141s 今回宿泊したホテルの部屋。リビングにソファーベットがある!

Dscn2143s 簡単なキッチンが付いているので自炊も可能?

Dscn2145s マトにされた哀れなデジカメ、HDD、CDROMドライブ

20100201 グアム最後の朝飯~

Img_0100s グアム最後の昼飯~

Img_0104s そして、機内食+アルコールbeer

Dscn2147s グアムを離陸して1時間30分位で太平洋になんとなく島影が・・・・

Photo GPSのデータからおそらく小笠原諸島かな?

Img_0107s 突然、機首を8しまへ向ける・・・何があったんだ!

Img_0108s
と、思ったら8しまを回避して銚子沖へ・・・・



次回から正式訓練が開始される・・・・と思います。

|

« 第二次グアム合宿3日目 | トップページ | 常夏の翌日は雪・・・・・ »

グアム合宿」カテゴリの記事